Time;durP1;ratioP1;P1;durP2;ratioP2;P2;SDS_P1;SDS_P2;PMS_P1;PMS_P2;Temp;Humidity;BMP_temperature;BMP_pressure;BME280_temperature;BME280_humidity;BME280_pressure;Samples;Min_cycle;Max_cycle;Signal;HPM_P1;HPM_P2
2022/12/17 13:06:10;;;;;;;70.65;18.20;;;;;;;-3.35;54.59;102534.19;4931612;29;20462;-74
2022/12/17 13:08:37;;;;;;;63.90;16.98;;;;;;;-2.86;53.87;102542.28;4912940;28;20051;-71
2022/12/17 13:11:28;;;;;;;53.05;14.15;;;;;;;-4.32;56.89;102540.81;4931519;28;20118;-72
2022/12/17 13:14:00;;;;;;;52.42;14.02;;;;;;;-3.95;55.84;102540.00;4926624;28;20047;-73
2022/12/17 13:16:44;;;;;;;;;;;;;;;-4.00;56.03;102541.47;4930527;29;20138;-71
2022/12/17 13:19:34;;;;;;;46.67;12.82;;;;;;;-3.44;55.33;102546.56;4931501;29;19922;-70
2022/12/17 13:22:15;;;;;;;48.13;14.32;;;;;;;-3.67;55.75;102546.41;4927896;28;20224;-71
2022/12/17 13:24:42;;;;;;;52.97;15.88;;;;;;;-3.60;55.42;102537.34;4936213;29;20260;-71
2022/12/17 13:27:33;;;;;;;49.63;15.48;;;;;;;-3.02;54.05;102536.47;4934058;28;20122;-73
2022/12/17 13:30:13;;;;;;;61.17;16.85;;;;;;;-3.09;54.07;102538.75;4927291;29;20213;-71
2022/12/17 13:33:09;;;;;;;59.53;16.13;;;;;;;-3.48;54.52;102543.84;4927494;28;20079;-70
2022/12/17 13:35:47;;;;;;;58.08;17.08;;;;;;;-3.35;55.06;102546.97;4925723;29;20391;-72
2022/12/17 13:38:30;;;;;;;62.05;19.60;;;;;;;-3.18;54.51;102547.69;4928025;28;20100;-71
2022/12/17 13:41:04;;;;;;;69.47;17.02;;;;;;;-2.99;53.63;102540.03;4929114;29;21404;-71
2022/12/17 13:43:37;;;;;;;52.20;16.17;;;;;;;-3.19;53.71;102546.84;4926932;28;20044;-73
2022/12/17 13:46:02;;;;;;;66.07;17.77;;;;;;;-3.43;54.44;102545.75;4913848;29;20102;-71
2022/12/17 13:48:28;;;;;;;57.35;16.50;;;;;;;-3.18;54.05;102540.94;4925988;28;20302;-71
2022/12/17 13:50:54;;;;;;;52.35;16.40;;;;;;;-3.47;54.32;102545.63;4928086;28;20493;-71
2022/12/17 13:53:22;;;;;;;79.80;21.83;;;;;;;-4.48;57.35;102550.19;4929049;28;20520;-71
2022/12/17 13:55:52;;;;;;;70.47;19.20;;;;;;;-3.51;55.67;102546.28;4927289;29;20492;-71
2022/12/17 13:58:24;;;;;;;54.85;17.23;;;;;;;-3.63;55.48;102548.31;4929076;28;20357;-71
2022/12/17 14:00:50;;;;;;;52.30;16.77;;;;;;;-5.05;58.26;102548.25;4926669;29;20697;-73
2022/12/17 14:03:20;;;;;;;49.17;15.98;;;;;;;-4.51;57.46;102548.38;4935264;28;20062;-73
2022/12/17 14:05:46;;;;;;;51.85;17.08;;;;;;;-3.98;56.11;102539.00;4927168;29;20497;-73
2022/12/17 14:08:16;;;;;;;53.67;16.85;;;;;;;-4.22;56.56;102546.38;4943816;28;20066;-73
2022/12/17 14:12:20;;;;;;;45.80;13.55;;;;;;;-4.01;56.25;102544.84;4931488;29;20154;-73
2022/12/17 14:13:38;;;;;;;49.83;16.40;;;;;;;-3.88;55.90;102552.25;4926288;28;20303;-73
2022/12/17 14:16:04;;;;;;;57.90;16.33;;;;;;;-4.12;56.01;102551.09;4929968;28;20036;-71
2022/12/17 14:18:30;;;;;;;44.53;16.63;;;;;;;-4.42;57.04;102556.47;4926771;28;20067;-70
2022/12/17 14:20:56;;;;;;;54.92;15.55;;;;;;;-4.55;57.59;102564.34;4927979;29;20082;-71
2022/12/17 14:23:30;;;;;;;51.58;17.35;;;;;;;-4.68;57.86;102561.97;4929802;28;20044;-68
2022/12/17 14:25:56;;;;;;;45.20;18.55;;;;;;;-4.26;56.98;102565.75;4918572;29;21724;-69
2022/12/17 14:28:34;;;;;;;58.30;18.08;;;;;;;-3.84;55.82;102572.84;4928465;28;20075;-70
2022/12/17 14:31:14;;;;;;;50.25;17.50;;;;;;;-3.87;56.12;102573.59;4935337;29;20631;-69
2022/12/17 14:33:41;;;;;;;53.38;19.92;;;;;;;-3.63;55.16;102572.97;4927166;28;20146;-69
2022/12/17 14:36:22;;;;;;;54.63;19.40;;;;;;;-4.10;56.62;102578.47;4927409;29;20039;-71
2022/12/17 14:38:57;;;;;;;87.43;21.27;;;;;;;-4.51;57.38;102571.34;4933305;28;20279;-70
2022/12/17 14:44:20;;;;;;;67.25;20.42;;;;;;;-3.71;55.52;102559.84;4926131;29;20060;-70
2022/12/17 14:46:46;;;;;;;66.00;19.33;;;;;;;-4.13;56.63;102577.44;4933373;28;20035;-69
2022/12/17 14:49:17;;;;;;;60.92;19.42;;;;;;;-3.83;55.77;102574.59;4926682;29;20446;-70
2022/12/17 14:51:43;;;;;;;50.55;17.15;;;;;;;-4.33;56.94;102572.25;4926874;28;20115;-69
2022/12/17 14:54:24;;;;;;;54.83;20.02;;;;;;;-4.71;57.73;102567.81;4928315;29;20633;-70
2022/12/17 14:56:52;;;;;;;50.30;16.90;;;;;;;-4.11;56.43;102579.28;4918353;28;20134;-70
2022/12/17 14:59:33;;;;;;;59.17;18.40;;;;;;;-3.72;55.52;102573.41;4933679;29;20056;-69
2022/12/17 15:02:04;;;;;;;60.28;19.48;;;;;;;-3.57;54.37;102571.56;4933947;28;20575;-69
2022/12/17 15:04:31;;;;;;;49.70;18.73;;;;;;;-4.11;55.95;102568.19;4927684;28;20152;-70
2022/12/17 15:06:57;;;;;;;50.35;18.20;;;;;;;-3.90;55.88;102573.41;4929753;28;20480;-71
2022/12/17 15:09:23;;;;;;;76.55;19.02;;;;;;;-4.17;55.64;102563.66;4938304;29;20040;-70
2022/12/17 15:11:49;;;;;;;54.78;18.30;;;;;;;-4.24;56.58;102563.28;4946981;28;20042;-70
2022/12/17 15:14:14;;;;;;;60.63;18.98;;;;;;;-5.05;58.65;102565.22;4931402;29;20427;-69
2022/12/17 15:16:40;;;;;;;63.60;18.35;;;;;;;-4.75;58.42;102573.53;4930419;28;20408;-69
2022/12/17 15:19:05;;;;;;;60.85;15.85;;;;;;;-4.80;57.92;102580.09;4931077;29;20494;-69
2022/12/17 15:21:31;;;;;;;59.28;18.67;;;;;;;-5.13;59.04;102577.56;4935179;28;20035;-69
2022/12/17 15:23:57;;;;;;;64.63;19.38;;;;;;;-4.50;57.71;102588.41;4930744;28;20042;-71
2022/12/17 15:26:22;;;;;;;60.15;16.23;;;;;;;-4.56;57.81;102585.56;4938103;28;20543;-70
2022/12/17 15:28:48;;;;;;;77.07;18.20;;;;;;;-5.11;58.76;102586.16;4931857;28;20107;-69
2022/12/17 15:31:14;;;;;;;62.85;18.10;;;;;;;-4.91;58.47;102579.53;4938205;29;20512;-69
2022/12/17 15:33:40;;;;;;;53.85;16.80;;;;;;;-5.19;59.69;102583.22;4921339;28;20062;-69
2022/12/17 15:36:06;;;;;;;57.22;16.95;;;;;;;-4.33;57.12;102577.34;4932314;29;20031;-69
2022/12/17 15:38:32;;;;;;;66.53;18.75;;;;;;;-4.62;57.32;102580.16;4931355;28;20139;-70
2022/12/17 15:43:09;;;;;;;57.92;16.13;;;;;;;-4.83;58.02;102580.81;4931493;29;20524;-71
2022/12/17 15:43:49;;;;;;;55.83;16.30;;;;;;;-4.55;57.48;102579.66;4931600;28;20433;-70
2022/12/17 15:46:15;;;;;;;58.45;17.05;;;;;;;-4.26;56.27;102581.06;4930884;29;20031;-71
2022/12/17 15:48:40;;;;;;;60.85;16.65;;;;;;;-4.41;56.78;102583.78;4931044;28;20055;-71
2022/12/17 15:51:06;;;;;;;63.08;19.70;;;;;;;-4.56;57.28;102585.56;4931815;29;20087;-71
2022/12/17 15:53:31;;;;;;;64.30;19.95;;;;;;;-5.12;57.53;102589.53;4930635;28;20044;-71
2022/12/17 15:56:01;;;;;;;68.32;20.80;;;;;;;-5.25;58.57;102582.88;4937901;28;20047;-72
2022/12/17 15:58:26;;;;;;;70.57;20.83;;;;;;;-4.88;57.73;102589.91;4930031;28;20476;-71
2022/12/17 16:00:52;;;;;;;62.53;18.98;;;;;;;-4.98;57.65;102588.56;4929483;28;20066;-71
2022/12/17 16:03:18;;;;;;;72.15;19.90;;;;;;;-4.72;57.58;102596.69;4929466;28;20167;-71
2022/12/17 16:05:43;;;;;;;63.00;18.90;;;;;;;-5.57;59.13;102605.00;4933827;28;20031;-71
2022/12/17 16:08:09;;;;;;;55.97;19.92;;;;;;;-4.88;57.63;102595.03;4928418;28;20062;-72
2022/12/17 16:10:35;;;;;;;68.38;21.20;;;;;;;-4.56;57.05;102598.31;4929347;29;20165;-71
2022/12/17 16:13:01;;;;;;;56.70;16.08;;;;;;;-4.43;56.56;102598.13;4928752;28;20047;-71
2022/12/17 16:15:26;;;;;;;69.90;20.25;;;;;;;-4.22;56.13;102603.41;4930548;29;20079;-71
2022/12/17 16:17:51;;;;;;;72.85;21.05;;;;;;;-5.24;58.69;102597.38;4927980;28;20067;-71
2022/12/17 16:20:17;;;;;;;79.03;21.73;;;;;;;-4.84;57.80;102601.13;4930302;28;20043;-71
2022/12/17 16:22:45;;;;;;;72.65;22.83;;;;;;;-5.00;58.57;102595.25;4928525;28;20128;-71
2022/12/17 16:25:13;;;;;;;70.25;21.70;;;;;;;-4.66;57.27;102596.09;4915318;29;20053;-71
2022/12/17 16:27:38;;;;;;;75.10;22.42;;;;;;;-4.91;58.21;102594.84;4927221;28;20236;-71
2022/12/17 16:30:04;;;;;;;70.57;21.95;;;;;;;-4.45;57.19;102597.19;4960966;28;20039;-71
2022/12/17 16:32:30;;;;;;;70.97;20.15;;;;;;;-4.74;57.65;102601.69;4928381;28;20126;-71
2022/12/17 16:34:55;;;;;;;74.85;20.95;;;;;;;-4.77;58.00;102614.31;4929330;28;20528;-71
2022/12/17 16:37:21;;;;;;;83.00;21.75;;;;;;;-4.84;57.97;102619.88;4930906;28;20162;-71
2022/12/17 16:39:46;;;;;;;87.40;23.33;;;;;;;-4.61;57.70;102617.59;4925767;28;20158;-71
2022/12/17 16:42:15;;;;;;;89.65;22.08;;;;;;;-4.87;57.29;102616.28;4935240;28;20127;-72
2022/12/17 16:44:40;;;;;;;80.43;22.30;;;;;;;-4.74;57.57;102619.56;4926102;28;20042;-71
2022/12/17 16:47:06;;;;;;;100.32;23.77;;;;;;;-4.82;57.43;102620.81;4930393;29;20640;-71
2022/12/17 16:49:31;;;;;;;92.20;23.63;;;;;;;-4.37;56.90;102623.06;4929817;28;20043;-71
2022/12/17 16:51:58;;;;;;;73.40;20.92;;;;;;;-4.62;57.23;102628.63;4935545;28;20035;-71
2022/12/17 16:54:25;;;;;;;68.53;18.23;;;;;;;-4.55;57.11;102620.47;4930212;29;20340;-71
2022/12/17 16:56:52;;;;;;;78.53;21.05;;;;;;;-4.50;56.86;102624.13;4928964;28;20039;-71
2022/12/17 16:59:18;;;;;;;84.60;22.38;;;;;;;-4.82;57.20;102625.94;4929840;28;20031;-71
2022/12/17 17:01:47;;;;;;;66.60;24.02;;;;;;;-5.30;58.66;102632.75;4927219;28;20515;-71
2022/12/17 17:04:15;;;;;;;70.22;22.67;;;;;;;-4.93;58.23;102632.16;4927685;28;20062;-71
2022/12/17 17:06:43;;;;;;;81.22;22.77;;;;;;;-4.25;56.35;102638.16;4943597;28;20035;-71
2022/12/17 17:09:09;;;;;;;89.57;25.38;;;;;;;-4.63;57.01;102632.00;4931868;29;20390;-71
2022/12/17 17:11:35;;;;;;;81.28;22.40;;;;;;;-4.82;57.55;102646.34;4943085;28;20042;-71
2022/12/17 17:14:01;;;;;;;72.95;22.50;;;;;;;-5.51;59.21;102644.31;4936512;28;20052;-71
2022/12/17 17:16:26;;;;;;;86.90;23.00;;;;;;;-4.67;57.49;102656.47;4932080;29;20036;-71
2022/12/17 17:18:53;;;;;;;79.55;23.80;;;;;;;-4.64;57.03;102650.63;4929280;28;20034;-71
2022/12/17 17:21:18;;;;;;;102.72;24.77;;;;;;;-5.09;58.36;102655.97;4929508;28;20536;-71
2022/12/17 17:23:56;;;;;;;79.25;22.10;;;;;;;-4.87;57.65;102652.00;4927239;28;20050;-72
2022/12/17 17:26:23;;;;;;;68.28;21.30;;;;;;;-5.15;57.85;102656.53;4929219;29;20038;-71
2022/12/17 17:28:49;;;;;;;67.78;19.83;;;;;;;-5.06;57.71;102656.13;4925387;28;20047;-71
2022/12/17 17:31:15;;;;;;;76.03;21.92;;;;;;;-5.79;59.74;102650.47;4928761;28;20032;-71
2022/12/17 17:33:43;;;;;;;84.93;22.42;;;;;;;-4.96;57.99;102665.16;4926550;28;20046;-71
2022/12/17 17:36:15;;;;;;;86.70;23.55;;;;;;;-4.67;57.47;102663.25;4927308;29;20455;-71
2022/12/17 17:38:41;;;;;;;88.07;23.25;;;;;;;-5.43;59.23;102655.81;4928371;28;20055;-71
2022/12/17 17:41:11;;;;;;;71.25;23.15;;;;;;;-5.22;59.15;102668.84;4930412;29;20050;-71
2022/12/17 17:43:37;;;;;;;80.63;21.88;;;;;;;-4.92;58.07;102659.41;4928276;29;20051;-71
2022/12/17 17:46:07;;;;;;;69.85;21.85;;;;;;;-5.00;58.17;102663.22;4920246;29;20039;-71
2022/12/17 17:48:33;;;;;;;94.85;22.70;;;;;;;-5.42;58.89;102670.31;4934636;28;20097;-71
2022/12/17 17:51:05;;;;;;;80.18;22.73;;;;;;;-5.64;59.08;102668.25;4928971;29;20073;-71
2022/12/17 17:53:30;;;;;;;77.90;21.73;;;;;;;-5.32;59.28;102672.59;4926809;28;20055;-72
2022/12/17 17:56:07;;;;;;;76.22;20.73;;;;;;;-5.55;59.64;102672.19;4928077;29;20031;-71
2022/12/17 17:58:33;;;;;;;82.82;22.58;;;;;;;-5.03;57.85;102675.81;4934430;29;20044;-72
2022/12/17 18:01:05;;;;;;;88.80;21.77;;;;;;;-5.18;58.46;102680.97;4930965;29;20477;-71
2022/12/17 18:03:31;;;;;;;75.35;19.55;;;;;;;-5.40;59.14;102673.81;4919002;29;20083;-71
2022/12/17 18:06:00;;;;;;;98.80;21.45;;;;;;;-5.74;59.96;102671.97;4929763;29;20436;-71
2022/12/17 18:08:28;;;;;;;88.50;21.63;;;;;;;-5.55;59.67;102674.75;4930183;28;20043;-71
2022/12/17 18:10:57;;;;;;;91.25;20.05;;;;;;;-5.41;58.53;102672.97;4927420;29;20046;-71
2022/12/17 18:16:08;;;;;;;87.45;22.20;;;;;;;-4.86;57.36;102675.03;4927432;29;20937;-71
2022/12/17 18:18:33;;;;;;;77.63;20.42;;;;;;;-4.74;56.68;102673.13;4936789;28;20046;-71
2022/12/17 18:21:07;;;;;;;91.25;21.45;;;;;;;-4.63;57.05;102677.94;4936333;29;20039;-71
2022/12/17 18:23:33;;;;;;;107.75;27.17;;;;;;;-4.88;57.21;102680.84;4934174;28;20047;-71
2022/12/17 18:26:10;;;;;;;93.60;22.80;;;;;;;-4.89;57.25;102682.53;4932514;29;20478;-70
2022/12/17 18:28:36;;;;;;;81.10;20.63;;;;;;;-4.87;56.74;102675.84;4936378;28;20081;-71
2022/12/17 18:31:07;;;;;;;83.43;22.25;;;;;;;-5.46;58.58;102683.66;4944404;28;20543;-71
2022/12/17 18:33:33;;;;;;;90.35;24.48;;;;;;;-4.91;57.43;102681.56;4934038;28;20240;-71
2022/12/17 18:35:58;;;;;;;97.40;21.50;;;;;;;-4.61;56.26;102681.41;4931940;29;20486;-71
2022/12/17 18:38:24;;;;;;;76.93;20.60;;;;;;;-4.92;57.35;102684.94;4919486;28;20158;-71
2022/12/17 18:40:49;;;;;;;96.53;24.45;;;;;;;-5.47;57.97;102692.13;4932641;28;20130;-71
2022/12/17 18:43:23;;;;;;;99.75;24.00;;;;;;;-5.03;57.35;102683.47;4931795;28;20047;-71
2022/12/17 18:45:51;;;;;;;91.00;22.75;;;;;;;-5.02;57.39;102692.88;4931847;28;20412;-71
2022/12/17 18:48:18;;;;;;;89.47;22.35;;;;;;;-4.92;56.61;102690.91;4930767;28;20048;-71
2022/12/17 18:50:44;;;;;;;89.95;24.20;;;;;;;-5.24;57.40;102696.78;4939944;29;20063;-71
2022/12/17 18:53:10;;;;;;;98.75;24.73;;;;;;;-5.60;58.10;102695.66;4920692;29;20074;-71
2022/12/17 18:55:39;;;;;;;86.63;21.05;;;;;;;-5.40;57.88;102694.22;4911199;29;20591;-70
2022/12/17 18:58:07;;;;;;;74.05;20.90;;;;;;;-5.27;57.39;102695.78;4925628;29;20562;-69
2022/12/17 19:00:33;;;;;;;77.22;19.33;;;;;;;-5.55;57.95;102694.22;4933517;29;20130;-70
2022/12/17 19:02:58;;;;;;;83.28;20.83;;;;;;;-5.59;58.27;102700.84;4932296;28;20165;-70
2022/12/17 19:05:24;;;;;;;86.10;22.42;;;;;;;-6.05;59.43;102698.22;4935941;29;20059;-69
2022/12/17 19:07:49;;;;;;;90.72;24.38;;;;;;;-5.32;58.07;102703.16;4922180;29;20457;-70
2022/12/17 19:10:15;;;;;;;87.07;19.67;;;;;;;-5.66;58.71;102698.75;4931420;28;20102;-69
2022/12/17 19:12:40;;;;;;;89.25;21.58;;;;;;;-5.68;58.86;102692.69;4936737;28;20036;-69
2022/12/17 19:15:06;;;;;;;81.07;22.20;;;;;;;-5.35;57.71;102692.78;4933446;29;20280;-72
2022/12/17 19:17:32;;;;;;;88.45;24.27;;;;;;;-5.25;57.70;102689.97;4932017;28;20054;-70
2022/12/17 19:19:57;;;;;;;74.53;21.55;;;;;;;-5.14;57.49;102701.63;4931996;28;20039;-73
2022/12/17 19:22:23;;;;;;;99.65;26.02;;;;;;;-5.69;58.29;102703.66;4930930;28;20058;-69
2022/12/17 19:24:48;;;;;;;88.68;22.58;;;;;;;-4.84;56.70;102704.03;4928437;29;20504;-72
2022/12/17 19:27:14;;;;;;;81.95;22.08;;;;;;;-5.04;56.23;102702.09;4930840;28;20067;-70
2022/12/17 19:29:39;;;;;;;97.05;24.33;;;;;;;-5.35;57.54;102702.97;4939387;28;20062;-70
2022/12/17 19:32:05;;;;;;;85.90;23.50;;;;;;;-5.63;57.93;102705.69;4929579;28;20051;-70
2022/12/17 19:34:31;;;;;;;87.40;21.95;;;;;;;-5.30;56.84;102700.69;4933290;29;20032;-69
2022/12/17 19:36:56;;;;;;;107.32;24.58;;;;;;;-5.09;56.94;102690.78;4933171;28;20043;-69
2022/12/17 19:39:22;;;;;;;90.38;22.98;;;;;;;-5.22;56.51;102705.41;4931143;29;20043;-69
2022/12/17 19:41:49;;;;;;;92.82;23.95;;;;;;;-5.15;56.52;102722.81;4929660;28;20039;-69
2022/12/17 19:44:16;;;;;;;80.28;22.00;;;;;;;-5.78;58.37;102720.97;4937530;29;20043;-69
2022/12/17 19:46:42;;;;;;;93.03;23.23;;;;;;;-5.17;56.90;102724.41;4944489;28;20434;-69
2022/12/17 19:49:15;;;;;;;87.07;19.80;;;;;;;-5.38;57.33;102719.00;4931174;29;20149;-71
2022/12/17 19:51:42;;;;;;;83.13;21.15;;;;;;;-5.80;58.54;102723.41;4932588;28;20039;-71
2022/12/17 19:54:11;;;;;;;77.03;22.63;;;;;;;-5.81;58.58;102725.91;4937357;29;20535;-71
2022/12/17 19:56:37;;;;;;;84.35;24.40;;;;;;;-5.42;57.82;102711.09;4930768;29;20027;-72
2022/12/17 19:59:07;;;;;;;87.40;21.95;;;;;;;-5.37;56.94;102719.84;4929160;28;20047;-71
2022/12/17 20:01:35;;;;;;;82.05;22.33;;;;;;;-5.51;57.59;102725.88;4934396;29;20035;-71
2022/12/17 20:04:01;;;;;;;77.97;21.42;;;;;;;-5.64;57.80;102730.28;4920562;28;20522;-69
2022/12/17 20:06:30;;;;;;;80.88;23.10;;;;;;;-5.01;56.45;102726.13;4918451;29;20667;-69
2022/12/17 20:09:00;;;;;;;87.18;24.25;;;;;;;-4.96;56.18;102734.88;4935396;29;20047;-69
2022/12/17 20:11:32;;;;;;;69.43;21.52;;;;;;;-5.00;56.29;102745.72;4938355;29;20045;-70
2022/12/17 20:14:14;;;;;;;75.57;22.63;;;;;;;-5.16;56.83;102754.19;4929186;29;20071;-70
2022/12/17 20:16:48;;;;;;;81.45;21.85;;;;;;;-5.50;57.18;102751.44;4938375;28;20028;-69
2022/12/17 20:19:25;;;;;;;83.80;25.25;;;;;;;-4.96;55.86;102737.44;4930015;29;20039;-69
2022/12/17 20:21:52;;;;;;;92.22;22.67;;;;;;;-4.90;56.04;102749.66;4928781;28;20424;-70
2022/12/17 20:24:18;;;;;;;74.55;21.88;;;;;;;-5.19;56.57;102745.53;4930739;28;20123;-72
2022/12/17 20:26:45;;;;;;;82.93;20.15;;;;;;;-4.95;55.77;102751.06;4931544;28;20518;-70
2022/12/17 20:29:11;;;;;;;91.90;25.00;;;;;;;-5.10;56.09;102750.22;4945637;28;20023;-71
2022/12/17 20:31:36;;;;;;;87.05;24.23;;;;;;;-5.10;56.11;102750.22;4929608;29;20102;-73
2022/12/17 20:34:04;;;;;;;72.65;21.80;;;;;;;-5.38;56.80;102731.72;4930317;28;20039;-71
2022/12/17 20:36:30;;;;;;;81.18;23.48;;;;;;;-5.39;57.24;102741.84;4931167;29;20039;-72
2022/12/17 20:38:57;;;;;;;85.95;22.77;;;;;;;-5.19;56.51;102741.28;4929656;28;21398;-71
2022/12/17 20:41:28;;;;;;;85.63;24.05;;;;;;;-5.11;56.28;102740.81;4930961;28;20034;-72
2022/12/17 20:43:55;;;;;;;94.40;24.60;;;;;;;-5.71;57.86;102742.56;4919012;28;20512;-71
2022/12/17 20:46:23;;;;;;;89.22;21.98;;;;;;;-5.36;57.08;102736.91;4929739;29;20399;-72
2022/12/17 20:48:49;;;;;;;67.25;20.30;;;;;;;-5.52;57.58;102736.88;4930444;28;20114;-72
2022/12/17 20:51:18;;;;;;;74.55;22.50;;;;;;;-5.40;57.13;102740.97;4930468;29;20036;-71
2022/12/17 20:53:47;;;;;;;70.40;20.10;;;;;;;-5.14;56.49;102744.97;4927753;28;20050;-71
2022/12/17 20:56:16;;;;;;;85.07;22.20;;;;;;;-4.85;55.88;102740.56;4928480;29;20045;-72
2022/12/17 20:58:42;;;;;;;81.47;23.92;;;;;;;-5.62;56.81;102738.88;4935059;28;20042;-72
2022/12/17 21:01:14;;;;;;;69.97;20.17;;;;;;;-5.51;57.34;102738.59;4929573;29;20042;-72
2022/12/17 21:03:40;;;;;;;72.15;23.70;;;;;;;-5.90;57.85;102744.06;4908687;28;20136;-72
2022/12/17 21:06:09;;;;;;;74.25;23.95;;;;;;;-5.70;57.26;102729.94;4910374;29;20154;-71
2022/12/17 21:08:36;;;;;;;72.63;20.23;;;;;;;-6.15;59.29;102739.22;4925413;28;20047;-71
2022/12/17 21:11:01;;;;;;;69.97;19.13;;;;;;;-6.08;58.50;102746.44;4929040;28;20568;-71
2022/12/17 21:13:30;;;;;;;68.68;20.60;;;;;;;-6.00;58.43;102750.28;4913421;28;20059;-71
2022/12/17 21:16:03;;;;;;;75.78;20.98;;;;;;;-6.06;58.48;102749.03;4928960;29;20035;-71
2022/12/17 21:18:30;;;;;;;72.20;22.33;;;;;;;-6.05;58.58;102756.78;4929166;28;20051;-70
2022/12/17 21:21:07;;;;;;;80.07;22.85;;;;;;;-5.84;58.23;102753.72;4929208;28;20047;-71
2022/12/17 21:23:34;;;;;;;71.07;22.85;;;;;;;-6.06;58.37;102755.03;4929830;28;20510;-70
2022/12/17 21:26:21;;;;;;;77.13;23.10;;;;;;;-5.94;57.98;102764.19;4948290;28;20259;-73
2022/12/17 21:28:50;;;;;;;82.10;19.13;;;;;;;-6.03;58.84;102757.75;4929444;29;20055;-74
2022/12/17 21:31:20;;;;;;;84.07;22.23;;;;;;;-6.01;58.28;102752.75;4949010;28;20556;-73
2022/12/17 21:33:46;;;;;;;86.20;24.92;;;;;;;-5.70;57.68;102759.63;4938217;28;20070;-74
2022/12/17 21:36:13;;;;;;;102.18;27.85;;;;;;;-6.13;58.83;102763.09;4929066;28;20030;-74
2022/12/17 21:38:39;;;;;;;95.45;24.90;;;;;;;-5.61;57.98;102775.44;4932613;28;20106;-78
2022/12/17 21:41:13;;;;;;;91.75;28.40;;;;;;;-6.09;59.49;102777.75;4940954;29;20529;-73
2022/12/17 21:43:39;;;;;;;95.55;24.83;;;;;;;-5.82;58.35;102777.59;4930875;28;20094;-74
2022/12/17 21:46:08;;;;;;;80.93;24.83;;;;;;;-6.05;58.73;102786.44;4928282;29;20126;-76
2022/12/17 21:48:37;;;;;;;75.25;20.83;;;;;;;-6.87;60.30;102773.88;4936087;28;20577;-76
2022/12/17 21:51:04;;;;;;;76.18;22.60;;;;;;;-6.67;60.71;102772.56;4936916;29;20190;-73
2022/12/17 21:53:30;;;;;;;94.30;22.98;;;;;;;-6.43;60.08;102787.56;4931095;28;20056;-77
2022/12/17 21:56:04;;;;;;;74.28;19.63;;;;;;;-6.35;59.39;102781.31;4942574;29;20043;-76
2022/12/17 21:58:30;;;;;;;72.88;21.20;;;;;;;-5.92;58.40;102781.28;4947990;28;20055;-77
2022/12/17 22:00:55;;;;;;;75.43;23.58;;;;;;;-6.70;60.34;102789.31;4941974;29;20035;-74
2022/12/17 22:03:20;;;;;;;83.38;22.77;;;;;;;-6.47;59.78;102785.63;4945839;28;20095;-77
2022/12/17 22:05:46;;;;;;;72.63;21.50;;;;;;;-6.13;59.00;102782.56;4939877;29;20039;-77
2022/12/17 22:08:12;;;;;;;80.03;20.17;;;;;;;-5.79;57.80;102770.16;4942979;28;20074;-77
2022/12/17 22:10:41;;;;;;;85.35;23.23;;;;;;;-5.66;57.42;102777.72;4936885;29;20106;-77
2022/12/17 22:15:53;;;;;;;92.13;23.17;;;;;;;-5.85;58.11;102796.13;4946918;29;20040;-77
2022/12/17 22:18:19;;;;;;;86.10;23.40;;;;;;;-5.86;58.46;102796.94;4944006;28;20118;-77
2022/12/17 22:20:44;;;;;;;68.28;21.63;;;;;;;-5.89;58.67;102803.50;4930198;28;20042;-77
2022/12/17 22:23:10;;;;;;;80.63;21.25;;;;;;;-5.77;58.17;102800.03;4945141;28;20065;-77
2022/12/17 22:25:37;;;;;;;87.68;23.48;;;;;;;-5.45;57.08;102797.56;4943226;29;20019;-77
2022/12/17 22:28:03;;;;;;;86.00;24.52;;;;;;;-5.21;56.55;102793.00;4943725;28;20047;-77
2022/12/17 22:33:15;;;;;;;71.53;19.88;;;;;;;-6.08;58.58;102794.78;4948673;28;20114;-77
2022/12/17 22:35:41;;;;;;;83.60;23.50;;;;;;;-6.41;59.46;102796.19;4927937;28;20477;-77
2022/12/17 22:38:08;;;;;;;77.80;23.60;;;;;;;-6.22;58.72;102803.25;4931045;28;20076;-77
2022/12/17 22:40:34;;;;;;;77.70;21.92;;;;;;;-5.75;57.28;102802.63;4948846;29;20031;-77
2022/12/17 22:45:44;;;;;;;82.45;22.30;;;;;;;-5.42;56.76;102790.97;4945962;29;20038;-77
2022/12/17 22:48:10;;;;;;;73.05;21.33;;;;;;;-5.46;56.71;102780.50;4942654;28;20051;-77
2022/12/17 22:50:36;;;;;;;79.25;21.55;;;;;;;-6.24;58.23;102799.72;4940871;29;20093;-76
2022/12/17 22:53:02;;;;;;;77.45;21.33;;;;;;;-5.96;57.68;102792.97;4944664;28;20063;-72
2022/12/17 22:55:27;;;;;;;64.25;19.23;;;;;;;-6.61;59.06;102797.50;4948897;28;20429;-72
2022/12/17 22:57:53;;;;;;;73.47;22.23;;;;;;;-6.58;59.75;102800.22;4932287;28;20065;-72
2022/12/17 23:00:28;;;;;;;69.65;22.50;;;;;;;-5.82;57.48;102792.88;4934674;29;20158;-71
2022/12/17 23:02:54;;;;;;;63.17;20.90;;;;;;;-6.26;58.60;102783.53;4932795;28;20059;-72
2022/12/17 23:05:21;;;;;;;77.15;23.27;;;;;;;-5.94;57.72;102789.63;4922138;29;20059;-71
2022/12/17 23:07:47;;;;;;;74.63;20.70;;;;;;;-6.94;59.75;102802.25;4934240;28;20507;-72
2022/12/17 23:10:13;;;;;;;80.80;21.52;;;;;;;-6.26;59.03;102809.84;4933692;29;20035;-72
2022/12/17 23:12:51;;;;;;;71.43;22.92;;;;;;;-6.32;58.91;102811.13;4922932;28;20061;-71
2022/12/17 23:15:35;;;;;;;86.80;23.15;;;;;;;-6.55;59.26;102818.25;4939007;29;20468;-77
2022/12/17 23:18:02;;;;;;;78.68;21.25;;;;;;;-6.17;58.23;102822.25;4941381;28;20047;-76
2022/12/17 23:20:30;;;;;;;75.50;23.25;;;;;;;-6.14;57.77;102816.47;4940054;29;20557;-76
2022/12/17 23:22:56;;;;;;;74.22;22.00;;;;;;;-6.13;58.29;102820.75;4934089;28;20051;-77
2022/12/17 23:25:22;;;;;;;90.53;19.65;;;;;;;-5.80;57.01;102820.19;4944018;28;20047;-76
2022/12/17 23:27:49;;;;;;;82.90;22.85;;;;;;;-5.72;56.93;102823.22;4939542;28;20047;-76
2022/12/17 23:30:16;;;;;;;77.57;22.73;;;;;;;-5.62;56.36;102819.53;4942307;29;20043;-76
2022/12/17 23:32:43;;;;;;;73.72;21.67;;;;;;;-5.91;56.78;102822.91;4938291;28;20054;-77
2022/12/17 23:35:10;;;;;;;75.28;20.85;;;;;;;-6.10;57.79;102826.91;4937773;28;20047;-76
2022/12/17 23:37:36;;;;;;;72.65;22.08;;;;;;;-6.74;59.49;102830.59;4930034;28;20034;-78
2022/12/17 23:40:03;;;;;;;82.45;22.83;;;;;;;-6.97;60.30;102827.47;4947150;28;20370;-78
2022/12/17 23:42:29;;;;;;;78.65;25.17;;;;;;;-6.55;59.39;102820.78;4945315;28;20658;-78
2022/12/17 23:44:54;;;;;;;70.50;22.30;;;;;;;-6.51;59.24;102825.28;4944569;29;20023;-77
2022/12/17 23:47:20;;;;;;;76.97;23.52;;;;;;;-6.27;58.21;102807.19;4937117;28;20532;-78
2022/12/17 23:49:45;;;;;;;81.30;22.33;;;;;;;-5.96;57.75;102808.22;4940633;28;20055;-77
2022/12/17 23:52:11;;;;;;;75.20;24.10;;;;;;;-6.14;58.04;102817.34;4924308;28;20039;-77
2022/12/17 23:54:36;;;;;;;77.30;22.52;;;;;;;-5.77;56.80;102811.88;4938619;28;20483;-78
2022/12/17 23:57:02;;;;;;;83.45;22.02;;;;;;;-5.84;57.19;102809.75;4944317;28;20572;-77
2022/12/17 23:59:27;;;;;;;79.90;22.27;;;;;;;-5.65;56.87;102811.72;4926141;29;20059;-77
